Terminal Aerodrome Forecast
Issued by NWS La Crosse, WI

Home | Current Version | Previous Version | Text Only | Print | Product List | Glossary On
Versions: 1 2 3 4 5 6 7 8 9 10 11 12 13 14 15 16 17 18 19 20 21 22 23 24 25 26 27 28 29 30 31 32 33 34 35 36 37 38 39 40
000
FTUS43 KARX 250655 AAA
TAFLSE
TAF AMD
KLSE 250655Z 2507/2606 13008KT P6SM BKN014
     FM251000 16007KT P6SM VCSH SCT008 BKN012
      TEMPO 2512/2516 SHRA
     FM251700 21011KT P6SM SCT030 BKN080
     FM252000 26012G20KT P6SM BKN200
     FM260000 28013G20KT P6SM OVC040=

USA.gov is the U.S. government's official web portal to all federal, state and local government web resources and services.